sensor_id;sensor_type;location;lat;lon;timestamp;pressure;altitude;pressure_sealevel;temperature;humidity
76460;BME280;65299;46.084;18.762;2023-06-14T00:02:18;100315.34;;;12.98;76.03
76460;BME280;65299;46.084;18.762;2023-06-14T00:05:18;100317.81;;;12.90;76.30
76460;BME280;65299;46.084;18.762;2023-06-14T00:08:18;100314.34;;;12.89;75.82
76460;BME280;65299;46.084;18.762;2023-06-14T00:11:21;100319.34;;;12.96;75.67
76460;BME280;65299;46.084;18.762;2023-06-14T00:14:21;100311.75;;;12.79;76.20
76460;BME280;65299;46.084;18.762;2023-06-14T00:17:22;100314.09;;;12.86;75.70
76460;BME280;65299;46.084;18.762;2023-06-14T00:20:22;100314.91;;;12.86;75.71
76460;BME280;65299;46.084;18.762;2023-06-14T00:23:23;100322.63;;;12.88;75.78
76460;BME280;65299;46.084;18.762;2023-06-14T00:26:23;100317.06;;;12.84;75.56
76460;BME280;65299;46.084;18.762;2023-06-14T00:29:23;100306.47;;;12.74;75.99
76460;BME280;65299;46.084;18.762;2023-06-14T00:32:24;100307.06;;;12.66;76.34
76460;BME280;65299;46.084;18.762;2023-06-14T00:35:25;100307.06;;;12.66;76.17
76460;BME280;65299;46.084;18.762;2023-06-14T00:38:26;100307.81;;;12.67;76.02
76460;BME280;65299;46.084;18.762;2023-06-14T00:41:26;100309.66;;;12.76;75.65
76460;BME280;65299;46.084;18.762;2023-06-14T00:44:27;100305.50;;;12.60;76.70
76460;BME280;65299;46.084;18.762;2023-06-14T00:47:27;100308.63;;;12.67;76.62
76460;BME280;65299;46.084;18.762;2023-06-14T00:50:28;100303.34;;;12.62;76.71
76460;BME280;65299;46.084;18.762;2023-06-14T00:53:31;100308.69;;;12.57;76.36
76460;BME280;65299;46.084;18.762;2023-06-14T00:56:35;100310.81;;;12.60;76.03
76460;BME280;65299;46.084;18.762;2023-06-14T00:59:47;100309.72;;;12.61;76.34
76460;BME280;65299;46.084;18.762;2023-06-14T01:02:48;100309.25;;;12.54;76.31
76460;BME280;65299;46.084;18.762;2023-06-14T01:05:56;100307.69;;;12.48;76.14
76460;BME280;65299;46.084;18.762;2023-06-14T01:12:39;100306.91;;;12.42;76.73
76460;BME280;65299;46.084;18.762;2023-06-14T01:15:43;100300.78;;;12.42;76.77
76460;BME280;65299;46.084;18.762;2023-06-14T01:18:44;100292.25;;;12.45;76.64
76460;BME280;65299;46.084;18.762;2023-06-14T01:21:48;100291.22;;;12.41;76.85
76460;BME280;65299;46.084;18.762;2023-06-14T01:24:51;100289.59;;;12.45;76.38
76460;BME280;65299;46.084;18.762;2023-06-14T01:28:03;100292.03;;;12.36;76.41
76460;BME280;65299;46.084;18.762;2023-06-14T01:31:04;100292.34;;;12.25;76.66
76460;BME280;65299;46.084;18.762;2023-06-14T01:34:05;100295.31;;;12.18;77.12
76460;BME280;65299;46.084;18.762;2023-06-14T01:37:06;100291.56;;;12.24;77.09
76460;BME280;65299;46.084;18.762;2023-06-14T01:40:07;100291.78;;;12.33;76.59
76460;BME280;65299;46.084;18.762;2023-06-14T01:43:09;100299.00;;;12.22;77.09
76460;BME280;65299;46.084;18.762;2023-06-14T01:46:11;100287.56;;;12.22;77.06
76460;BME280;65299;46.084;18.762;2023-06-14T01:49:12;100292.94;;;12.17;77.06
76460;BME280;65299;46.084;18.762;2023-06-14T01:52:13;100292.41;;;12.10;77.31
76460;BME280;65299;46.084;18.762;2023-06-14T01:55:13;100287.94;;;12.05;77.28
76460;BME280;65299;46.084;18.762;2023-06-14T01:58:14;100292.16;;;12.11;77.21
76460;BME280;65299;46.084;18.762;2023-06-14T02:01:16;100292.69;;;12.08;77.37
76460;BME280;65299;46.084;18.762;2023-06-14T02:04:17;100291.91;;;12.03;77.75
76460;BME280;65299;46.084;18.762;2023-06-14T02:07:17;100299.34;;;12.06;77.49
76460;BME280;65299;46.084;18.762;2023-06-14T02:10:18;100295.84;;;12.20;77.79
76460;BME280;65299;46.084;18.762;2023-06-14T02:13:18;100301.34;;;12.39;76.97
76460;BME280;65299;46.084;18.762;2023-06-14T02:16:18;100300.34;;;12.20;77.31
76460;BME280;65299;46.084;18.762;2023-06-14T02:19:20;100303.53;;;12.27;77.07
76460;BME280;65299;46.084;18.762;2023-06-14T02:22:20;100304.91;;;12.14;76.75
76460;BME280;65299;46.084;18.762;2023-06-14T02:25:22;100305.66;;;12.20;76.90
76460;BME280;65299;46.084;18.762;2023-06-14T02:28:22;100305.16;;;12.18;76.58
76460;BME280;65299;46.084;18.762;2023-06-14T02:31:22;100298.72;;;12.29;76.62
76460;BME280;65299;46.084;18.762;2023-06-14T02:34:23;100302.00;;;12.11;76.69
76460;BME280;65299;46.084;18.762;2023-06-14T02:37:23;100309.13;;;12.25;76.02
76460;BME280;65299;46.084;18.762;2023-06-14T02:40:24;100303.28;;;12.18;76.42
76460;BME280;65299;46.084;18.762;2023-06-14T02:43:24;100308.13;;;12.01;76.96
76460;BME280;65299;46.084;18.762;2023-06-14T02:46:25;100298.81;;;12.04;76.70
76460;BME280;65299;46.084;18.762;2023-06-14T02:49:25;100302.00;;;12.06;76.42
76460;BME280;65299;46.084;18.762;2023-06-14T02:52:26;100298.31;;;11.97;76.71
76460;BME280;65299;46.084;18.762;2023-06-14T02:55:26;100304.94;;;11.99;76.49
76460;BME280;65299;46.084;18.762;2023-06-14T02:58:26;100302.59;;;11.93;76.55
76460;BME280;65299;46.084;18.762;2023-06-14T03:01:27;100302.63;;;11.83;76.80
76460;BME280;65299;46.084;18.762;2023-06-14T03:04:33;100307.94;;;11.83;77.01
76460;BME280;65299;46.084;18.762;2023-06-14T03:07:37;100312.97;;;11.84;76.96
76460;BME280;65299;46.084;18.762;2023-06-14T03:10:41;100307.09;;;11.92;76.67
76460;BME280;65299;46.084;18.762;2023-06-14T03:13:41;100306.88;;;11.84;76.51
76460;BME280;65299;46.084;18.762;2023-06-14T03:16:41;100312.75;;;11.71;76.86
76460;BME280;65299;46.084;18.762;2023-06-14T03:19:43;100324.69;;;11.78;76.55
76460;BME280;65299;46.084;18.762;2023-06-14T03:22:43;100324.16;;;11.71;76.93
76460;BME280;65299;46.084;18.762;2023-06-14T03:25:46;100320.19;;;11.79;77.09
76460;BME280;65299;46.084;18.762;2023-06-14T03:28:47;100325.19;;;11.90;76.32
76460;BME280;65299;46.084;18.762;2023-06-14T03:31:57;100318.06;;;11.81;76.71
76460;BME280;65299;46.084;18.762;2023-06-14T03:34:58;100323.88;;;11.93;76.49
76460;BME280;65299;46.084;18.762;2023-06-14T03:37:58;100322.78;;;11.94;76.48
76460;BME280;65299;46.084;18.762;2023-06-14T03:40:59;100322.75;;;12.04;76.25
76460;BME280;65299;46.084;18.762;2023-06-14T03:43:59;100333.63;;;12.17;75.46
76460;BME280;65299;46.084;18.762;2023-06-14T03:46:59;100342.06;;;12.34;75.00
76460;BME280;65299;46.084;18.762;2023-06-14T03:50:01;100337.50;;;12.40;74.50
76460;BME280;65299;46.084;18.762;2023-06-14T03:53:01;100329.00;;;12.43;74.25
76460;BME280;65299;46.084;18.762;2023-06-14T03:56:02;100343.09;;;12.92;73.18
76460;BME280;65299;46.084;18.762;2023-06-14T03:59:02;100344.16;;;13.30;71.35
76460;BME280;65299;46.084;18.762;2023-06-14T04:02:03;100353.88;;;13.78;69.67
76460;BME280;65299;46.084;18.762;2023-06-14T04:05:03;100348.56;;;14.02;69.16
76460;BME280;65299;46.084;18.762;2023-06-14T04:08:04;100348.97;;;14.38;67.77
76460;BME280;65299;46.084;18.762;2023-06-14T04:11:09;100355.59;;;14.64;66.54
76460;BME280;65299;46.084;18.762;2023-06-14T04:14:09;100354.38;;;14.93;66.50
76460;BME280;65299;46.084;18.762;2023-06-14T04:17:10;100348.81;;;15.09;66.39
76460;BME280;65299;46.084;18.762;2023-06-14T04:20:10;100351.69;;;15.63;64.47
76460;BME280;65299;46.084;18.762;2023-06-14T04:23:15;100353.88;;;15.74;63.97
76460;BME280;65299;46.084;18.762;2023-06-14T04:26:15;100362.84;;;16.24;62.92
76460;BME280;65299;46.084;18.762;2023-06-14T04:29:16;100370.66;;;16.48;63.44
76460;BME280;65299;46.084;18.762;2023-06-14T04:32:19;100374.59;;;16.91;62.34
76460;BME280;65299;46.084;18.762;2023-06-14T04:35:19;100372.81;;;16.87;61.95
76460;BME280;65299;46.084;18.762;2023-06-14T04:38:20;100369.38;;;16.73;61.17
76460;BME280;65299;46.084;18.762;2023-06-14T04:41:25;100361.19;;;16.91;60.09
76460;BME280;65299;46.084;18.762;2023-06-14T04:44:30;100352.78;;;17.06;61.53
76460;BME280;65299;46.084;18.762;2023-06-14T04:47:31;100348.22;;;17.07;60.10
76460;BME280;65299;46.084;18.762;2023-06-14T04:50:32;100351.28;;;17.36;59.53
76460;BME280;65299;46.084;18.762;2023-06-14T04:53:33;100353.97;;;17.14;59.21
76460;BME280;65299;46.084;18.762;2023-06-14T04:56:34;100353.31;;;17.53;58.45
76460;BME280;65299;46.084;18.762;2023-06-14T04:59:34;100356.06;;;17.48;58.61
76460;BME280;65299;46.084;18.762;2023-06-14T05:02:35;100357.25;;;16.75;60.41
76460;BME280;65299;46.084;18.762;2023-06-14T05:05:37;100359.22;;;16.83;60.65
76460;BME280;65299;46.084;18.762;2023-06-14T05:08:38;100358.63;;;16.73;61.01
76460;BME280;65299;46.084;18.762;2023-06-14T05:11:38;100356.50;;;17.41;59.67
76460;BME280;65299;46.084;18.762;2023-06-14T05:14:39;100356.88;;;17.70;59.24
76460;BME280;65299;46.084;18.762;2023-06-14T05:17:39;100363.47;;;17.64;59.77
76460;BME280;65299;46.084;18.762;2023-06-14T05:20:41;100364.13;;;17.25;62.26
76460;BME280;65299;46.084;18.762;2023-06-14T05:23:42;100370.31;;;16.90;62.19
76460;BME280;65299;46.084;18.762;2023-06-14T05:26:42;100369.31;;;17.00;61.18
76460;BME280;65299;46.084;18.762;2023-06-14T05:29:42;100368.81;;;17.42;62.19
76460;BME280;65299;46.084;18.762;2023-06-14T05:32:43;100367.50;;;17.53;61.74
76460;BME280;65299;46.084;18.762;2023-06-14T05:35:43;100363.03;;;17.71;61.84
76460;BME280;65299;46.084;18.762;2023-06-14T05:38:45;100362.66;;;17.94;60.91
76460;BME280;65299;46.084;18.762;2023-06-14T05:41:45;100366.91;;;18.26;60.49
76460;BME280;65299;46.084;18.762;2023-06-14T05:44:46;100358.69;;;17.83;61.01
76460;BME280;65299;46.084;18.762;2023-06-14T05:47:46;100361.09;;;17.93;61.76
76460;BME280;65299;46.084;18.762;2023-06-14T05:50:46;100369.63;;;17.95;61.63
76460;BME280;65299;46.084;18.762;2023-06-14T05:53:50;100370.38;;;18.27;60.60
76460;BME280;65299;46.084;18.762;2023-06-14T05:56:51;100369.84;;;18.07;61.36
76460;BME280;65299;46.084;18.762;2023-06-14T05:59:51;100370.16;;;18.54;61.42
76460;BME280;65299;46.084;18.762;2023-06-14T06:02:52;100369.09;;;19.06;60.58
76460;BME280;65299;46.084;18.762;2023-06-14T06:05:52;100374.00;;;18.70;60.12
76460;BME280;65299;46.084;18.762;2023-06-14T06:08:53;100377.66;;;19.08;59.36
76460;BME280;65299;46.084;18.762;2023-06-14T06:11:53;100370.22;;;19.56;58.84
76460;BME280;65299;46.084;18.762;2023-06-14T06:14:53;100379.06;;;19.65;56.54
76460;BME280;65299;46.084;18.762;2023-06-14T06:17:54;100378.75;;;19.58;59.17
76460;BME280;65299;46.084;18.762;2023-06-14T06:20:55;100381.75;;;20.20;57.67
76460;BME280;65299;46.084;18.762;2023-06-14T06:23:55;100380.16;;;20.28;56.08
76460;BME280;65299;46.084;18.762;2023-06-14T06:26:56;100386.59;;;19.89;58.06
76460;BME280;65299;46.084;18.762;2023-06-14T06:29:56;100386.63;;;20.18;56.34
76460;BME280;65299;46.084;18.762;2023-06-14T06:32:57;100385.69;;;19.76;57.62
76460;BME280;65299;46.084;18.762;2023-06-14T06:35:58;100388.25;;;20.11;56.56
76460;BME280;65299;46.084;18.762;2023-06-14T06:38:58;100393.91;;;20.64;56.37
76460;BME280;65299;46.084;18.762;2023-06-14T06:41:59;100404.25;;;20.16;55.87
76460;BME280;65299;46.084;18.762;2023-06-14T06:44:59;100410.16;;;20.76;55.17
76460;BME280;65299;46.084;18.762;2023-06-14T06:48:00;100402.09;;;20.97;54.75
76460;BME280;65299;46.084;18.762;2023-06-14T06:51:01;100399.56;;;20.92;55.01
76460;BME280;65299;46.084;18.762;2023-06-14T06:54:01;100393.16;;;21.05;54.51
76460;BME280;65299;46.084;18.762;2023-06-14T06:57:02;100404.50;;;20.90;54.94
76460;BME280;65299;46.084;18.762;2023-06-14T07:00:03;100413.03;;;21.21;54.35
76460;BME280;65299;46.084;18.762;2023-06-14T07:03:08;100412.84;;;21.59;53.21
76460;BME280;65299;46.084;18.762;2023-06-14T07:06:09;100419.34;;;21.25;54.12
76460;BME280;65299;46.084;18.762;2023-06-14T07:09:10;100420.22;;;21.17;53.71
76460;BME280;65299;46.084;18.762;2023-06-14T07:12:15;100418.75;;;21.73;52.68
76460;BME280;65299;46.084;18.762;2023-06-14T07:15:15;100425.78;;;21.53;52.67
76460;BME280;65299;46.084;18.762;2023-06-14T07:18:15;100423.44;;;21.31;53.04
76460;BME280;65299;46.084;18.762;2023-06-14T07:21:16;100421.06;;;21.50;52.83
76460;BME280;65299;46.084;18.762;2023-06-14T07:24:16;100414.00;;;21.90;51.37
76460;BME280;65299;46.084;18.762;2023-06-14T07:27:17;100418.28;;;22.03;50.30
76460;BME280;65299;46.084;18.762;2023-06-14T07:30:17;100414.69;;;22.11;49.67
76460;BME280;65299;46.084;18.762;2023-06-14T07:33:18;100418.44;;;22.31;49.19
76460;BME280;65299;46.084;18.762;2023-06-14T07:36:18;100411.09;;;22.19;49.42
76460;BME280;65299;46.084;18.762;2023-06-14T07:39:18;100414.69;;;22.11;51.32
76460;BME280;65299;46.084;18.762;2023-06-14T07:42:19;100408.06;;;22.57;48.39
76460;BME280;65299;46.084;18.762;2023-06-14T07:45:21;100411.09;;;22.92;47.14
76460;BME280;65299;46.084;18.762;2023-06-14T07:48:22;100418.44;;;23.59;47.02
76460;BME280;65299;46.084;18.762;2023-06-14T07:51:23;100419.22;;;23.32;46.23
76460;BME280;65299;46.084;18.762;2023-06-14T07:54:24;100415.22;;;23.53;45.44
76460;BME280;65299;46.084;18.762;2023-06-14T07:57:26;100423.22;;;23.10;44.66
76460;BME280;65299;46.084;18.762;2023-06-14T08:00:27;100420.63;;;23.14;45.08
76460;BME280;65299;46.084;18.762;2023-06-14T08:03:27;100414.91;;;22.91;44.98
76460;BME280;65299;46.084;18.762;2023-06-14T08:06:28;100418.41;;;23.43;43.32
76460;BME280;65299;46.084;18.762;2023-06-14T08:09:28;100413.69;;;22.88;42.37
76460;BME280;65299;46.084;18.762;2023-06-14T08:12:29;100413.75;;;23.44;42.14
76460;BME280;65299;46.084;18.762;2023-06-14T08:15:29;100427.94;;;23.13;39.29
76460;BME280;65299;46.084;18.762;2023-06-14T08:18:30;100423.97;;;23.35;40.18
76460;BME280;65299;46.084;18.762;2023-06-14T08:21:30;100425.94;;;23.50;39.28
76460;BME280;65299;46.084;18.762;2023-06-14T08:24:33;100428.81;;;23.29;39.03
76460;BME280;65299;46.084;18.762;2023-06-14T08:27:33;100428.63;;;23.50;38.06
76460;BME280;65299;46.084;18.762;2023-06-14T08:30:34;100423.19;;;23.62;37.78
76460;BME280;65299;46.084;18.762;2023-06-14T08:33:34;100424.66;;;23.32;36.32
76460;BME280;65299;46.084;18.762;2023-06-14T08:36:35;100419.69;;;23.61;36.10
76460;BME280;65299;46.084;18.762;2023-06-14T08:39:36;100422.59;;;23.41;35.00
76460;BME280;65299;46.084;18.762;2023-06-14T08:42:37;100419.69;;;23.61;35.68
76460;BME280;65299;46.084;18.762;2023-06-14T08:45:38;100414.63;;;24.19;36.53
76460;BME280;65299;46.084;18.762;2023-06-14T08:48:39;100428.09;;;24.97;36.83
76460;BME280;65299;46.084;18.762;2023-06-14T08:51:39;100435.09;;;23.88;35.82
76460;BME280;65299;46.084;18.762;2023-06-14T08:54:41;100429.47;;;24.09;36.08
76460;BME280;65299;46.084;18.762;2023-06-14T08:57:46;100432.72;;;23.44;37.25
76460;BME280;65299;46.084;18.762;2023-06-14T09:00:48;100439.47;;;23.77;36.68
76460;BME280;65299;46.084;18.762;2023-06-14T09:03:50;100443.56;;;24.30;38.23
76460;BME280;65299;46.084;18.762;2023-06-14T09:06:50;100433.38;;;24.74;37.32
76460;BME280;65299;46.084;18.762;2023-06-14T09:10:14;100429.13;;;25.46;35.83
76460;BME280;65299;46.084;18.762;2023-06-14T09:13:16;100437.66;;;25.44;35.75
76460;BME280;65299;46.084;18.762;2023-06-14T09:16:17;100427.88;;;24.39;35.71
76460;BME280;65299;46.084;18.762;2023-06-14T09:19:24;100428.34;;;24.26;34.39
76460;BME280;65299;46.084;18.762;2023-06-14T09:22:25;100438.31;;;24.37;35.11
76460;BME280;65299;46.084;18.762;2023-06-14T09:25:25;100429.72;;;24.66;35.06
76460;BME280;65299;46.084;18.762;2023-06-14T09:28:27;100428.50;;;24.48;34.66
76460;BME280;65299;46.084;18.762;2023-06-14T09:31:28;100434.13;;;24.09;34.48
76460;BME280;65299;46.084;18.762;2023-06-14T09:34:33;100426.22;;;25.01;33.86
76460;BME280;65299;46.084;18.762;2023-06-14T09:37:34;100426.94;;;24.32;34.68
76460;BME280;65299;46.084;18.762;2023-06-14T09:40:35;100423.44;;;24.47;32.98
76460;BME280;65299;46.084;18.762;2023-06-14T09:43:37;100424.47;;;24.58;34.04
76460;BME280;65299;46.084;18.762;2023-06-14T09:46:38;100419.59;;;25.17;33.74
76460;BME280;65299;46.084;18.762;2023-06-14T09:49:39;100421.34;;;25.44;32.22
76460;BME280;65299;46.084;18.762;2023-06-14T09:52:41;100417.41;;;25.42;32.50
76460;BME280;65299;46.084;18.762;2023-06-14T09:55:44;100419.97;;;25.73;32.99
76460;BME280;65299;46.084;18.762;2023-06-14T09:58:45;100421.28;;;25.41;32.99
76460;BME280;65299;46.084;18.762;2023-06-14T10:01:47;100424.06;;;25.44;31.55
76460;BME280;65299;46.084;18.762;2023-06-14T10:08:14;100415.59;;;25.30;31.21
76460;BME280;65299;46.084;18.762;2023-06-14T10:11:17;100425.72;;;25.49;32.17
76460;BME280;65299;46.084;18.762;2023-06-14T10:14:17;100415.72;;;25.37;31.97
76460;BME280;65299;46.084;18.762;2023-06-14T10:24:00;100410.91;;;24.93;33.58
76460;BME280;65299;46.084;18.762;2023-06-14T10:27:06;100397.31;;;25.08;32.92
76460;BME280;65299;46.084;18.762;2023-06-14T10:30:10;100412.84;;;25.46;31.82
76460;BME280;65299;46.084;18.762;2023-06-14T10:33:14;100409.16;;;25.58;30.37
76460;BME280;65299;46.084;18.762;2023-06-14T10:36:31;100402.44;;;25.93;31.38
76460;BME280;65299;46.084;18.762;2023-06-14T10:39:43;100401.13;;;25.84;31.90
76460;BME280;65299;46.084;18.762;2023-06-14T10:42:51;100379.22;;;25.16;31.64
76460;BME280;65299;46.084;18.762;2023-06-14T10:46:19;100387.16;;;25.24;32.82
76460;BME280;65299;46.084;18.762;2023-06-14T10:52:45;100391.22;;;24.96;31.86
76460;BME280;65299;46.084;18.762;2023-06-14T10:55:45;100395.69;;;24.53;32.28
76460;BME280;65299;46.084;18.762;2023-06-14T10:58:46;100386.06;;;25.67;32.30
76460;BME280;65299;46.084;18.762;2023-06-14T11:04:53;100394.28;;;26.39;30.33
76460;BME280;65299;46.084;18.762;2023-06-14T11:11:15;100389.84;;;25.63;31.13
76460;BME280;65299;46.084;18.762;2023-06-14T11:14:16;100392.75;;;26.41;30.39
76460;BME280;65299;46.084;18.762;2023-06-14T11:17:18;100398.41;;;25.84;32.27
76460;BME280;65299;46.084;18.762;2023-06-14T11:20:18;100389.03;;;25.81;31.21
76460;BME280;65299;46.084;18.762;2023-06-14T11:23:21;100389.88;;;25.85;32.93
76460;BME280;65299;46.084;18.762;2023-06-14T11:26:26;100393.00;;;25.65;32.20
76460;BME280;65299;46.084;18.762;2023-06-14T11:29:29;100389.41;;;24.84;30.93
76460;BME280;65299;46.084;18.762;2023-06-14T11:32:31;100389.50;;;25.87;30.32
76460;BME280;65299;46.084;18.762;2023-06-14T11:35:31;100379.84;;;25.89;28.54
76460;BME280;65299;46.084;18.762;2023-06-14T11:38:36;100376.47;;;25.96;28.27
76460;BME280;65299;46.084;18.762;2023-06-14T11:41:44;100376.78;;;26.13;30.33
76460;BME280;65299;46.084;18.762;2023-06-14T11:44:49;100384.19;;;25.94;29.65
76460;BME280;65299;46.084;18.762;2023-06-14T11:47:50;100372.22;;;26.21;28.56
76460;BME280;65299;46.084;18.762;2023-06-14T11:50:50;100367.69;;;25.41;30.19
76460;BME280;65299;46.084;18.762;2023-06-14T11:53:51;100368.13;;;25.24;30.65
76460;BME280;65299;46.084;18.762;2023-06-14T11:56:52;100366.25;;;25.47;29.69
76460;BME280;65299;46.084;18.762;2023-06-14T11:59:54;100361.53;;;25.25;29.44
76460;BME280;65299;46.084;18.762;2023-06-14T12:02:57;100364.84;;;25.15;28.25
76460;BME280;65299;46.084;18.762;2023-06-14T12:06:07;100375.09;;;25.64;28.60
76460;BME280;65299;46.084;18.762;2023-06-14T12:09:07;100356.56;;;26.14;27.74
76460;BME280;65299;46.084;18.762;2023-06-14T12:12:12;100363.56;;;25.93;27.39
76460;BME280;65299;46.084;18.762;2023-06-14T12:15:13;100359.88;;;26.04;29.53
76460;BME280;65299;46.084;18.762;2023-06-14T12:18:13;100366.91;;;25.83;30.06
76460;BME280;65299;46.084;18.762;2023-06-14T12:21:14;100357.63;;;25.84;29.02
76460;BME280;65299;46.084;18.762;2023-06-14T12:24:15;100362.00;;;25.69;29.93
76460;BME280;65299;46.084;18.762;2023-06-14T12:27:16;100358.88;;;26.12;29.74
76460;BME280;65299;46.084;18.762;2023-06-14T12:30:18;100354.38;;;26.01;29.91
76460;BME280;65299;46.084;18.762;2023-06-14T12:33:19;100352.75;;;25.74;29.71
76460;BME280;65299;46.084;18.762;2023-06-14T12:36:19;100348.75;;;25.68;30.58
76460;BME280;65299;46.084;18.762;2023-06-14T12:39:20;100349.59;;;25.30;32.16
76460;BME280;65299;46.084;18.762;2023-06-14T12:42:21;100350.88;;;25.55;29.81
76460;BME280;65299;46.084;18.762;2023-06-14T12:45:21;100358.72;;;25.60;30.17
76460;BME280;65299;46.084;18.762;2023-06-14T12:48:23;100350.78;;;25.93;29.01
76460;BME280;65299;46.084;18.762;2023-06-14T12:51:23;100345.50;;;26.26;29.06
76460;BME280;65299;46.084;18.762;2023-06-14T12:54:25;100338.59;;;26.88;29.32
76460;BME280;65299;46.084;18.762;2023-06-14T12:57:25;100332.28;;;26.55;29.23
76460;BME280;65299;46.084;18.762;2023-06-14T13:00:26;100333.59;;;26.94;28.00
76460;BME280;65299;46.084;18.762;2023-06-14T13:03:26;100339.69;;;26.84;29.66
76460;BME280;65299;46.084;18.762;2023-06-14T13:06:27;100337.53;;;26.96;30.27
76460;BME280;65299;46.084;18.762;2023-06-14T13:09:29;100329.06;;;27.05;29.69
76460;BME280;65299;46.084;18.762;2023-06-14T13:12:30;100327.75;;;26.10;29.61
76460;BME280;65299;46.084;18.762;2023-06-14T13:15:30;100328.50;;;26.63;28.91
76460;BME280;65299;46.084;18.762;2023-06-14T13:18:31;100328.91;;;26.91;28.79
76460;BME280;65299;46.084;18.762;2023-06-14T13:21:31;100328.59;;;26.70;27.97
76460;BME280;65299;46.084;18.762;2023-06-14T13:24:32;100326.19;;;27.28;28.61
76460;BME280;65299;46.084;18.762;2023-06-14T13:27:32;100320.72;;;26.35;29.50
76460;BME280;65299;46.084;18.762;2023-06-14T13:30:33;100313.91;;;25.96;30.47
76460;BME280;65299;46.084;18.762;2023-06-14T13:33:33;100316.50;;;25.66;30.98
76460;BME280;65299;46.084;18.762;2023-06-14T13:36:34;100313.31;;;25.83;31.38
76460;BME280;65299;46.084;18.762;2023-06-14T13:39:35;100311.84;;;25.44;30.85
76460;BME280;65299;46.084;18.762;2023-06-14T13:42:37;100312.84;;;25.78;33.83
76460;BME280;65299;46.084;18.762;2023-06-14T13:45:37;100309.00;;;25.18;32.13
76460;BME280;65299;46.084;18.762;2023-06-14T13:48:38;100302.56;;;25.45;31.45
76460;BME280;65299;46.084;18.762;2023-06-14T13:51:38;100299.38;;;26.11;31.94
76460;BME280;65299;46.084;18.762;2023-06-14T13:54:39;100301.22;;;26.29;32.40
76460;BME280;65299;46.084;18.762;2023-06-14T13:57:39;100306.34;;;26.08;31.21
76460;BME280;65299;46.084;18.762;2023-06-14T14:00:39;100298.16;;;26.61;30.75
76460;BME280;65299;46.084;18.762;2023-06-14T14:03:40;100297.72;;;26.06;30.79
76460;BME280;65299;46.084;18.762;2023-06-14T14:06:40;100301.47;;;26.73;30.64
76460;BME280;65299;46.084;18.762;2023-06-14T14:09:41;100308.56;;;26.81;31.13
76460;BME280;65299;46.084;18.762;2023-06-14T14:12:43;100303.97;;;26.33;32.04
76460;BME280;65299;46.084;18.762;2023-06-14T14:15:43;100312.19;;;26.63;30.92
76460;BME280;65299;46.084;18.762;2023-06-14T14:18:45;100311.44;;;26.66;31.39
76460;BME280;65299;46.084;18.762;2023-06-14T14:21:46;100309.78;;;26.05;31.33
76460;BME280;65299;46.084;18.762;2023-06-14T14:24:46;100304.91;;;25.46;31.04
76460;BME280;65299;46.084;18.762;2023-06-14T14:27:47;100303.72;;;27.34;30.08
76460;BME280;65299;46.084;18.762;2023-06-14T14:30:47;100308.34;;;28.21;28.59
76460;BME280;65299;46.084;18.762;2023-06-14T14:33:48;100307.69;;;29.17;27.21
76460;BME280;65299;46.084;18.762;2023-06-14T14:36:48;100305.00;;;30.09;25.38
76460;BME280;65299;46.084;18.762;2023-06-14T14:39:49;100303.81;;;30.10;25.31
76460;BME280;65299;46.084;18.762;2023-06-14T14:42:49;100306.97;;;30.30;25.03
76460;BME280;65299;46.084;18.762;2023-06-14T14:45:50;100303.47;;;29.76;24.94
76460;BME280;65299;46.084;18.762;2023-06-14T14:48:50;100307.50;;;31.66;23.68
76460;BME280;65299;46.084;18.762;2023-06-14T14:51:50;100309.78;;;31.71;23.50
76460;BME280;65299;46.084;18.762;2023-06-14T14:54:51;100306.56;;;31.25;23.27
76460;BME280;65299;46.084;18.762;2023-06-14T14:57:51;100301.28;;;32.40;22.10
76460;BME280;65299;46.084;18.762;2023-06-14T15:00:52;100309.00;;;31.12;23.92
76460;BME280;65299;46.084;18.762;2023-06-14T15:03:52;100307.28;;;30.56;23.78
76460;BME280;65299;46.084;18.762;2023-06-14T15:06:53;100296.38;;;32.92;21.23
76460;BME280;65299;46.084;18.762;2023-06-14T15:09:54;100294.03;;;29.49;25.13
76460;BME280;65299;46.084;18.762;2023-06-14T15:12:55;100289.94;;;28.80;27.08
76460;BME280;65299;46.084;18.762;2023-06-14T15:15:55;100289.53;;;28.74;26.22
76460;BME280;65299;46.084;18.762;2023-06-14T15:18:56;100285.47;;;29.96;25.08
76460;BME280;65299;46.084;18.762;2023-06-14T15:21:56;100282.31;;;30.01;24.53
76460;BME280;65299;46.084;18.762;2023-06-14T15:24:59;100287.56;;;30.89;24.11
76460;BME280;65299;46.084;18.762;2023-06-14T15:27:59;100290.38;;;27.29;27.66
76460;BME280;65299;46.084;18.762;2023-06-14T15:31:01;100280.59;;;28.84;25.58
76460;BME280;65299;46.084;18.762;2023-06-14T15:34:01;100286.56;;;30.45;24.08
76460;BME280;65299;46.084;18.762;2023-06-14T15:37:02;100280.78;;;29.58;24.94
76460;BME280;65299;46.084;18.762;2023-06-14T15:40:03;100283.63;;;30.94;24.58
76460;BME280;65299;46.084;18.762;2023-06-14T15:43:04;100293.06;;;30.89;22.81
76460;BME280;65299;46.084;18.762;2023-06-14T15:46:04;100292.31;;;30.71;23.01
76460;BME280;65299;46.084;18.762;2023-06-14T15:49:12;100283.72;;;30.69;23.42
76460;BME280;65299;46.084;18.762;2023-06-14T15:52:13;100285.88;;;28.45;25.52
76460;BME280;65299;46.084;18.762;2023-06-14T15:55:13;100285.69;;;27.63;27.73
76460;BME280;65299;46.084;18.762;2023-06-14T15:58:14;100291.50;;;28.09;26.45
76460;BME280;65299;46.084;18.762;2023-06-14T16:01:14;100288.28;;;27.49;27.06